createdAt,value
2019-02-20T00:01:08.127Z,16.17
2019-02-20T00:03:38.423Z,15.13
2019-02-20T00:06:06.950Z,15.90
2019-02-20T00:08:37.483Z,15.97
2019-02-20T00:11:07.161Z,16.27
2019-02-20T00:13:35.823Z,14.80
2019-02-20T00:16:04.500Z,16.00
2019-02-20T00:18:33.139Z,16.07
2019-02-20T00:21:02.520Z,16.83
2019-02-20T00:23:31.066Z,17.35
2019-02-20T00:25:59.735Z,17.07
2019-02-20T00:28:28.419Z,18.03
2019-02-20T00:30:57.045Z,18.50
2019-02-20T00:33:26.706Z,15.63
2019-02-20T00:35:55.264Z,17.17
2019-02-20T00:38:24.662Z,17.47
2019-02-20T00:40:53.287Z,17.10
2019-02-20T00:43:21.987Z,17.70
2019-02-20T00:45:52.124Z,17.77
2019-02-20T00:48:38.518Z,17.73
2019-02-20T00:51:11.616Z,17.25
2019-02-20T00:53:48.432Z,17.47
2019-02-20T00:56:16.992Z,15.63
2019-02-20T00:58:45.620Z,16.27
2019-02-20T01:01:14.185Z,16.80
2019-02-20T01:03:42.786Z,16.80
2019-02-20T01:06:11.332Z,17.80
2019-02-20T01:08:39.944Z,18.20
2019-02-20T01:11:08.479Z,16.83
2019-02-20T01:13:37.118Z,16.97
2019-02-20T01:16:07.666Z,16.80
2019-02-20T01:18:36.046Z,15.37
2019-02-20T01:21:05.615Z,16.70
2019-02-20T01:23:34.232Z,16.40
2019-02-20T01:26:02.715Z,15.83
2019-02-20T01:28:33.522Z,15.37
2019-02-20T01:31:02.669Z,15.03
2019-02-20T01:33:31.249Z,16.37
2019-02-20T01:36:00.602Z,15.33
2019-02-20T01:38:29.507Z,14.70
2019-02-20T01:40:58.810Z,14.73
2019-02-20T01:43:27.365Z,15.70
2019-02-20T01:45:55.951Z,12.97
2019-02-20T01:48:24.632Z,13.83
2019-02-20T01:50:53.232Z,13.90
2019-02-20T01:53:21.814Z,13.80
2019-02-20T01:55:51.410Z,12.20
2019-02-20T01:58:20.042Z,12.97
2019-02-20T02:00:49.338Z,12.13
2019-02-20T02:03:17.948Z,12.57
2019-02-20T02:05:46.574Z,12.07
2019-02-20T02:08:15.179Z,11.90
2019-02-20T02:10:43.776Z,11.53
2019-02-20T02:13:12.375Z,10.97
2019-02-20T02:15:40.981Z,10.43
2019-02-20T02:18:09.538Z,11.10
2019-02-20T02:20:38.025Z,11.47
2019-02-20T02:23:07.353Z,10.80
2019-02-20T02:25:35.962Z,10.00
2019-02-20T02:28:04.843Z,11.33
2019-02-20T02:30:35.715Z,10.87
2019-02-20T02:33:04.425Z,11.00
2019-02-20T02:35:33.559Z,11.03
2019-02-20T02:38:04.190Z,10.07
2019-02-20T02:40:32.468Z,10.43
2019-02-20T02:43:01.018Z,10.37
2019-02-20T02:45:29.626Z,10.27
2019-02-20T02:47:58.239Z,10.93
2019-02-20T02:50:27.694Z,11.43
2019-02-20T02:52:56.280Z,11.03
2019-02-20T02:55:24.923Z,11.20
2019-02-20T02:57:54.981Z,11.77
2019-02-20T03:00:23.688Z,11.73
2019-02-20T03:02:52.491Z,11.13
2019-02-20T03:05:21.079Z,11.40
2019-02-20T03:07:50.347Z,11.75
2019-02-20T03:10:18.843Z,10.97
2019-02-20T03:12:47.420Z,11.70
2019-02-20T03:18:43.767Z,11.80
2019-02-20T03:21:13.067Z,11.73
2019-02-20T03:23:41.650Z,11.70
2019-02-20T03:26:10.777Z,11.53
2019-02-20T03:28:40.249Z,12.17
2019-02-20T03:31:11.698Z,11.87
2019-02-20T03:33:40.184Z,11.63
2019-02-20T03:36:08.694Z,12.40
2019-02-20T03:38:37.213Z,12.67
2019-02-20T03:41:05.820Z,12.90
2019-02-20T03:43:34.388Z,13.50
2019-02-20T03:46:02.934Z,13.70
2019-02-20T03:48:32.756Z,14.63
2019-02-20T03:51:01.275Z,13.33
2019-02-20T03:53:29.824Z,13.93
2019-02-20T03:55:58.375Z,15.33
2019-02-20T03:58:26.883Z,15.50
2019-02-20T04:00:56.669Z,15.27
2019-02-20T04:03:25.159Z,16.27
2019-02-20T04:05:53.656Z,16.00
2019-02-20T04:08:22.235Z,16.37
2019-02-20T04:10:50.707Z,17.10
2019-02-20T04:13:21.145Z,17.23
2019-02-20T04:15:49.656Z,17.67
2019-02-20T04:18:21.440Z,20.50
2019-02-20T04:20:49.949Z,19.37
2019-02-20T04:23:18.536Z,18.90
2019-02-20T04:25:47.746Z,20.10
2019-02-20T04:28:16.327Z,21.53
2019-02-20T04:30:44.834Z,21.03
2019-02-20T04:33:13.488Z,20.97
2019-02-20T04:35:42.060Z,20.90
2019-02-20T04:38:10.567Z,23.23
2019-02-20T04:40:39.093Z,23.10
2019-02-20T04:43:08.833Z,22.67
2019-02-20T04:45:37.360Z,23.13
2019-02-20T04:51:46.736Z,22.90
2019-02-20T04:54:16.078Z,24.30
2019-02-20T04:56:44.999Z,23.60
2019-02-20T04:59:13.551Z,23.00
2019-02-20T05:01:42.127Z,23.87
2019-02-20T05:04:10.608Z,24.73
2019-02-20T05:06:40.114Z,25.40
2019-02-20T05:09:10.253Z,24.43
2019-02-20T05:11:38.753Z,24.00
2019-02-20T05:14:08.043Z,25.83
2019-02-20T05:16:36.612Z,24.27
2019-02-20T05:19:06.648Z,24.03
2019-02-20T05:21:35.170Z,24.53
2019-02-20T05:24:03.825Z,25.40
2019-02-20T05:26:32.340Z,24.90
2019-02-20T05:29:00.914Z,25.40
2019-02-20T05:31:29.412Z,25.33
2019-02-20T05:33:57.937Z,24.60
2019-02-20T05:36:26.429Z,24.77
2019-02-20T05:38:56.330Z,24.33
2019-02-20T05:41:24.912Z,24.33
2019-02-20T05:43:54.190Z,24.37
2019-02-20T05:46:23.417Z,24.53
2019-02-20T05:48:52.754Z,24.20
2019-02-20T05:51:21.295Z,23.67
2019-02-20T05:53:52.066Z,24.47
2019-02-20T05:56:21.032Z,25.53
2019-02-20T05:58:49.886Z,24.20
2019-02-20T06:01:19.244Z,24.50
2019-02-20T06:03:47.774Z,24.97
2019-02-20T06:06:16.350Z,23.43
2019-02-20T06:08:45.088Z,24.70
2019-02-20T06:11:15.271Z,24.20
2019-02-20T06:13:44.011Z,24.63
2019-02-20T06:16:14.398Z,24.10
2019-02-20T06:18:43.860Z,24.07
2019-02-20T06:24:17.030Z,24.73
2019-02-20T06:26:47.274Z,24.03
2019-02-20T06:29:15.944Z,25.20
2019-02-20T06:31:44.612Z,25.83
2019-02-20T06:34:13.192Z,25.07
2019-02-20T06:36:42.352Z,25.47
2019-02-20T06:39:11.535Z,26.10
2019-02-20T06:41:40.062Z,26.83
2019-02-20T06:47:37.261Z,26.23
2019-02-20T06:50:07.612Z,25.43
2019-02-20T06:52:36.147Z,26.10
2019-02-20T06:58:45.821Z,26.45
2019-02-20T07:01:14.323Z,27.20
2019-02-20T07:03:42.845Z,27.23
2019-02-20T07:06:32.454Z,26.27
2019-02-20T07:09:25.474Z,26.90
2019-02-20T07:12:33.931Z,25.65
2019-02-20T07:18:38.927Z,27.27
2019-02-20T07:21:30.446Z,27.67
2019-02-20T07:24:16.977Z,27.00
2019-02-20T07:27:06.390Z,28.47
2019-02-20T07:30:04.960Z,28.57
2019-02-20T07:32:33.279Z,27.67
2019-02-20T07:35:01.770Z,29.73
2019-02-20T07:37:30.270Z,29.00
2019-02-20T07:40:00.807Z,30.07
2019-02-20T07:42:29.346Z,30.07
2019-02-20T07:44:57.814Z,27.77
2019-02-20T07:47:26.276Z,28.90
2019-02-20T07:49:54.799Z,30.63
2019-02-20T07:52:23.306Z,29.87
2019-02-20T07:54:53.387Z,29.60
2019-02-20T07:57:22.586Z,30.73
2019-02-20T07:59:51.164Z,30.10
2019-02-20T08:02:19.746Z,32.30
2019-02-20T08:04:48.720Z,30.80
2019-02-20T08:07:17.184Z,29.47
2019-02-20T08:09:45.706Z,30.17
2019-02-20T08:12:14.307Z,30.20
2019-02-20T08:14:42.800Z,31.70
2019-02-20T08:20:44.010Z,31.60
2019-02-20T08:23:14.896Z,31.00
2019-02-20T08:25:44.901Z,31.87
2019-02-20T08:28:13.353Z,32.50
2019-02-20T08:30:42.264Z,32.63
2019-02-20T08:33:12.979Z,32.60
2019-02-20T08:35:41.560Z,31.20
2019-02-20T08:41:50.938Z,34.03
2019-02-20T08:47:47.851Z,32.40
2019-02-20T08:57:07.811Z,31.80
2019-02-20T08:59:36.371Z,32.07
2019-02-20T09:02:04.969Z,31.40
2019-02-20T09:04:34.378Z,32.57
2019-02-20T09:07:03.145Z,33.90
2019-02-20T09:09:31.759Z,31.87
2019-02-20T09:12:00.332Z,34.53
2019-02-20T09:14:28.980Z,33.70
2019-02-20T09:16:57.846Z,35.10
2019-02-20T09:19:26.581Z,32.17
2019-02-20T09:21:56.471Z,32.87
2019-02-20T09:24:24.982Z,32.93
2019-02-20T09:30:34.341Z,34.70
2019-02-20T09:33:02.880Z,32.60
2019-02-20T09:35:34.425Z,33.20
2019-02-20T09:38:02.983Z,34.27
2019-02-20T09:40:31.515Z,33.67
2019-02-20T09:43:00.103Z,33.40
2019-02-20T09:45:41.631Z,33.43
2019-02-20T09:51:53.657Z,33.23
2019-02-20T09:54:22.203Z,33.17
2019-02-20T09:56:50.743Z,33.23
2019-02-20T09:59:19.248Z,36.13
2019-02-20T10:01:56.463Z,32.60
2019-02-20T10:04:25.001Z,34.23
2019-02-20T10:06:54.303Z,35.93
2019-02-20T10:09:22.807Z,34.53
2019-02-20T10:11:51.459Z,34.20
2019-02-20T10:14:20.060Z,35.33
2019-02-20T10:20:18.148Z,36.07
2019-02-20T10:22:48.171Z,35.23
2019-02-20T10:25:28.572Z,36.70
2019-02-20T10:31:25.778Z,36.27
2019-02-20T10:33:55.617Z,36.20
2019-02-20T10:36:25.627Z,34.60
2019-02-20T10:42:26.933Z,33.50
2019-02-20T10:44:55.495Z,35.37
2019-02-20T10:47:24.073Z,34.73
2019-02-20T10:49:52.819Z,35.00
2019-02-20T10:52:21.713Z,34.93
2019-02-20T10:54:57.632Z,36.23
2019-02-20T10:57:20.718Z,36.60
2019-02-20T10:59:54.384Z,38.87
2019-02-20T11:02:34.044Z,33.40
2019-02-20T11:40:35.595Z,36.63
2019-02-20T11:46:06.362Z,35.63
2019-02-20T11:48:34.949Z,34.87
2019-02-20T11:57:41.560Z,34.50
2019-02-20T12:00:29.709Z,34.63
2019-02-20T12:03:17.609Z,33.47
2019-02-20T12:06:05.358Z,34.43
2019-02-20T12:08:53.137Z,33.87
2019-02-20T12:11:40.889Z,35.73
2019-02-20T12:14:28.682Z,32.93
2019-02-20T12:17:16.497Z,30.47
2019-02-20T12:20:25.013Z,32.57
2019-02-20T12:23:05.491Z,34.23
2019-02-20T12:25:46.335Z,33.13
2019-02-20T12:28:27.229Z,33.50
2019-02-20T12:31:07.798Z,33.10
2019-02-20T12:33:48.737Z,30.10
2019-02-20T12:36:29.820Z,30.40
2019-02-20T12:39:10.361Z,31.07
2019-02-20T12:41:51.069Z,30.03
2019-02-20T12:44:31.780Z,31.83
2019-02-20T12:47:12.790Z,29.83
2019-02-20T12:49:53.684Z,30.10
2019-02-20T12:52:34.747Z,29.47
2019-02-20T12:55:15.430Z,28.53
2019-02-20T12:57:56.309Z,28.57
2019-02-20T13:00:36.796Z,25.77
2019-02-20T13:03:17.745Z,27.30
2019-02-20T13:05:58.698Z,27.20
2019-02-20T13:08:39.587Z,26.87
2019-02-20T13:11:20.337Z,23.97
2019-02-20T13:14:00.949Z,23.97
2019-02-20T13:16:41.782Z,24.17
2019-02-20T13:19:22.677Z,24.53
2019-02-20T13:22:03.743Z,25.90
2019-02-20T13:24:44.691Z,22.30
2019-02-20T13:27:25.626Z,22.83
2019-02-20T13:30:06.301Z,24.73
2019-02-20T13:32:47.330Z,25.53
2019-02-20T13:35:28.499Z,23.97
2019-02-20T13:38:09.361Z,24.43
2019-02-20T13:40:50.150Z,22.90
2019-02-20T13:43:30.981Z,22.67
2019-02-20T13:46:11.820Z,21.93
2019-02-20T13:48:52.662Z,21.33
2019-02-20T13:51:33.233Z,21.87
2019-02-20T13:54:13.976Z,22.70
2019-02-20T13:57:01.648Z,24.43
2019-02-20T13:59:36.855Z,25.50
2019-02-20T14:02:17.337Z,26.63
2019-02-20T14:04:58.829Z,25.10
2019-02-20T14:07:39.721Z,26.37
2019-02-20T14:10:20.190Z,23.73
2019-02-20T14:13:00.590Z,24.93
2019-02-20T14:15:41.115Z,23.63
2019-02-20T14:18:22.165Z,25.67
2019-02-20T14:21:03.091Z,24.13
2019-02-20T14:23:43.987Z,23.70
2019-02-20T14:26:24.565Z,24.03
2019-02-20T14:29:04.973Z,23.10
2019-02-20T14:31:45.798Z,23.77
2019-02-20T14:34:26.298Z,25.40
2019-02-20T14:37:06.746Z,25.87
2019-02-20T14:39:47.301Z,25.57
2019-02-20T14:42:27.930Z,25.67
2019-02-20T14:45:08.664Z,25.20
2019-02-20T14:47:49.169Z,25.70
2019-02-20T14:50:30.344Z,25.83
2019-02-20T14:53:11.216Z,26.00
2019-02-20T14:55:52.207Z,26.77
2019-02-20T14:58:32.944Z,24.70
2019-02-20T15:01:13.438Z,25.90
2019-02-20T15:03:54.087Z,25.17
2019-02-20T15:06:34.461Z,24.23
2019-02-20T15:09:15.476Z,24.67
2019-02-20T15:11:56.295Z,25.70
2019-02-20T15:14:36.893Z,27.57
2019-02-20T15:17:18.061Z,26.07
2019-02-20T15:19:59.173Z,26.20
2019-02-20T15:22:39.978Z,27.97
2019-02-20T15:25:20.450Z,28.10
2019-02-20T15:28:01.307Z,30.13
2019-02-20T15:30:41.944Z,30.33
2019-02-20T15:33:23.996Z,29.07
2019-02-20T15:36:04.485Z,29.67
2019-02-20T15:38:45.435Z,30.40
2019-02-20T15:41:26.558Z,31.40
2019-02-20T15:44:07.281Z,32.53
2019-02-20T15:46:47.908Z,32.50
2019-02-20T15:49:28.354Z,32.00
2019-02-20T15:52:09.300Z,30.03
2019-02-20T15:54:50.027Z,27.83
2019-02-20T15:57:37.837Z,27.13
2019-02-20T16:00:13.416Z,25.93
2019-02-20T16:02:53.977Z,26.10
2019-02-20T16:05:34.802Z,28.13
2019-02-20T16:08:15.341Z,25.43
2019-02-20T16:10:56.163Z,25.60
2019-02-20T16:13:36.693Z,24.17
2019-02-20T16:16:17.640Z,24.10
2019-02-20T16:18:58.161Z,24.20
2019-02-20T16:21:38.827Z,25.37
2019-02-20T16:24:19.870Z,24.63
2019-02-20T16:27:00.717Z,23.13
2019-02-20T16:29:42.157Z,23.07
2019-02-20T16:32:22.488Z,24.27
2019-02-20T16:35:03.026Z,22.73
2019-02-20T16:37:43.644Z,20.60
2019-02-20T16:40:24.418Z,20.17
2019-02-20T16:43:04.960Z,20.63
2019-02-20T16:45:46.344Z,16.33
2019-02-20T16:48:26.719Z,15.87
2019-02-20T16:51:07.021Z,14.63
2019-02-20T16:53:47.825Z,15.03
2019-02-20T16:56:28.212Z,15.20
2019-02-20T16:59:08.833Z,15.57
2019-02-20T17:01:49.160Z,14.53
2019-02-20T17:04:29.955Z,14.70
2019-02-20T17:07:10.772Z,15.57
2019-02-20T17:09:51.390Z,14.93
2019-02-20T17:12:32.195Z,13.57
2019-02-20T17:15:12.558Z,12.97
2019-02-20T17:17:41.037Z,12.43
2019-02-20T17:20:30.522Z,12.10
2019-02-20T17:23:18.282Z,11.87
2019-02-20T17:26:06.126Z,11.43
2019-02-20T17:28:47.193Z,13.10
2019-02-20T17:31:28.233Z,10.77
2019-02-20T17:34:09.550Z,10.20
2019-02-20T17:36:50.333Z,9.60
2019-02-20T17:39:31.065Z,9.70
2019-02-20T17:42:11.768Z,8.97
2019-02-20T17:44:52.281Z,9.23
2019-02-20T17:47:34.638Z,9.73
2019-02-20T17:50:15.557Z,9.63
2019-02-20T17:52:55.990Z,9.07
2019-02-20T17:55:36.558Z,8.20
2019-02-20T17:58:15.736Z,7.73
2019-02-20T18:03:58.345Z,8.23
2019-02-20T18:06:46.174Z,8.17
2019-02-20T18:09:33.939Z,9.30
2019-02-20T18:12:21.734Z,9.77
2019-02-20T18:15:29.054Z,10.23
2019-02-20T18:18:16.817Z,10.17
2019-02-20T18:21:04.606Z,7.83
2019-02-20T18:23:52.348Z,15.32
2019-02-20T18:26:40.115Z,10.63
2019-02-20T18:29:27.885Z,9.23
2019-02-20T18:32:09.009Z,9.20
2019-02-20T18:34:49.810Z,8.53
2019-02-20T18:37:30.318Z,8.90
2019-02-20T18:40:10.961Z,8.87
2019-02-20T18:42:51.563Z,8.20
2019-02-20T18:45:32.303Z,8.30
2019-02-20T18:48:12.857Z,8.60
2019-02-20T18:50:53.426Z,8.53
2019-02-20T18:53:34.045Z,11.13
2019-02-20T18:56:14.810Z,8.57
2019-02-20T18:58:55.592Z,11.70
2019-02-20T19:01:36.369Z,7.30
2019-02-20T19:04:16.893Z,8.43
2019-02-20T19:06:57.766Z,10.70
2019-02-20T19:09:38.362Z,10.20
2019-02-20T19:12:19.485Z,10.43
2019-02-20T19:15:00.386Z,10.23
2019-02-20T19:17:40.847Z,9.60
2019-02-20T19:20:21.260Z,9.80
2019-02-20T19:23:02.258Z,8.23
2019-02-20T19:25:43.341Z,8.27
2019-02-20T19:28:23.914Z,9.13
2019-02-20T19:31:04.508Z,9.87
2019-02-20T19:33:47.781Z,9.00
2019-02-20T19:36:28.458Z,9.20
2019-02-20T19:39:09.070Z,8.90
2019-02-20T19:41:49.609Z,8.27
2019-02-20T19:44:31.721Z,8.43
2019-02-20T19:47:12.077Z,9.10
2019-02-20T19:49:52.587Z,8.53
2019-02-20T19:53:01.171Z,8.40
2019-02-20T19:56:08.242Z,8.13
2019-02-20T19:59:15.334Z,8.20
2019-02-20T20:02:28.215Z,8.13
2019-02-20T20:05:32.559Z,8.43
2019-02-20T20:08:40.013Z,8.83
2019-02-20T20:11:47.164Z,8.40
2019-02-20T20:14:54.266Z,8.17
2019-02-20T20:18:01.428Z,8.07
2019-02-20T20:21:08.606Z,7.80
2019-02-20T20:23:49.465Z,8.37
2019-02-20T20:26:30.176Z,8.53
2019-02-20T20:29:10.822Z,8.40
2019-02-20T20:31:51.170Z,8.53
2019-02-20T20:34:32.023Z,8.75
2019-02-20T20:37:14.515Z,8.73
2019-02-20T20:39:55.138Z,8.17
2019-02-20T20:42:36.021Z,8.90
2019-02-20T20:45:16.873Z,8.93
2019-02-20T20:47:57.469Z,8.97
2019-02-20T20:50:37.877Z,9.00
2019-02-20T20:53:18.590Z,9.40
2019-02-20T20:55:59.357Z,10.97
2019-02-20T20:58:40.265Z,9.40
2019-02-20T21:01:21.101Z,10.17
2019-02-20T21:04:02.082Z,9.80
2019-02-20T21:06:42.677Z,9.97
2019-02-20T21:09:23.108Z,9.37
2019-02-20T21:12:03.503Z,9.80
2019-02-20T21:14:44.010Z,9.87
2019-02-20T21:17:24.708Z,10.33
2019-02-20T21:20:05.077Z,10.80
2019-02-20T21:22:45.696Z,10.63
2019-02-20T21:25:52.870Z,10.70
2019-02-20T21:28:59.973Z,10.03
2019-02-20T21:32:07.063Z,10.80
2019-02-20T21:35:14.149Z,11.07
2019-02-20T21:38:21.248Z,10.50
2019-02-20T21:41:29.738Z,11.93
2019-02-20T21:44:36.841Z,11.13
2019-02-20T21:47:43.942Z,10.63
2019-02-20T21:50:51.275Z,11.47
2019-02-20T21:53:59.306Z,11.20
2019-02-20T21:57:06.528Z,11.40
2019-02-20T22:00:13.617Z,11.83
2019-02-20T22:03:22.110Z,11.60
2019-02-20T22:06:29.190Z,11.83
2019-02-20T22:09:36.318Z,12.77
2019-02-20T22:12:50.581Z,13.27
2019-02-20T22:15:52.220Z,12.30
2019-02-20T22:18:59.301Z,12.63
2019-02-20T22:21:40.069Z,12.60
2019-02-20T22:24:23.172Z,12.53
2019-02-20T22:27:03.497Z,12.77
2019-02-20T22:29:50.076Z,13.40
2019-02-20T22:32:27.057Z,13.47
2019-02-20T22:35:08.037Z,14.30
2019-02-20T22:37:48.985Z,14.23
2019-02-20T22:40:29.744Z,14.30
2019-02-20T22:43:10.155Z,14.10
2019-02-20T22:45:50.934Z,14.50
2019-02-20T22:48:31.587Z,14.43
2019-02-20T22:51:12.134Z,14.77
2019-02-20T22:53:52.775Z,14.47
2019-02-20T22:56:33.927Z,14.13
2019-02-20T22:59:14.520Z,14.93
2019-02-20T23:01:55.129Z,14.87
2019-02-20T23:04:36.074Z,14.47
2019-02-20T23:07:16.622Z,14.10
2019-02-20T23:09:57.189Z,14.57
2019-02-20T23:12:37.855Z,15.70
2019-02-20T23:15:18.309Z,14.87
2019-02-20T23:17:59.282Z,14.67
2019-02-20T23:20:40.101Z,15.80
2019-02-20T23:23:20.730Z,15.40
2019-02-20T23:26:01.478Z,16.37
2019-02-20T23:28:42.313Z,15.80
2019-02-20T23:31:23.308Z,16.73
2019-02-20T23:34:04.060Z,15.58
2019-02-20T23:36:44.749Z,15.83
2019-02-20T23:39:25.476Z,16.70
2019-02-20T23:42:05.983Z,15.90
2019-02-20T23:44:46.885Z,18.47
2019-02-20T23:47:27.473Z,18.00
2019-02-20T23:50:07.978Z,16.93
2019-02-20T23:52:48.693Z,17.40
2019-02-20T23:55:29.414Z,16.90
2019-02-20T23:58:10.150Z,17.43
